Time;durP1;ratioP1;P1;durP2;ratioP2;P2;SDS_P1;SDS_P2;PMS_P1;PMS_P2;Temp;Humidity;BMP_temperature;BMP_pressure;BME280_temperature;BME280_humidity;BME280_pressure;Samples;Min_cycle;Max_cycle;Signal;HPM_P1;HPM_P2
2022/01/29 00:02:22;;;;;;;;;;;-1.00;75.30;;;;;;5022538;28;20386;-77
2022/01/29 00:04:49;;;;;;;;;;;-1.00;75.40;;;;;;5023671;28;20004;-77
2022/01/29 00:07:16;;;;;;;;;;;-1.00;75.50;;;;;;4994834;28;19964;-77
2022/01/29 00:09:44;;;;;;;;;;;-1.10;75.10;;;;;;5028912;28;19929;-77
2022/01/29 00:12:11;;;;;;;;;;;-1.10;75.80;;;;;;5022170;28;19925;-77
2022/01/29 00:14:38;;;;;;;;;;;-1.10;76.20;;;;;;5046871;28;20384;-77
2022/01/29 00:17:05;;;;;;;;;;;-1.10;76.00;;;;;;5034050;28;19925;-77
2022/01/29 00:19:32;;;;;;;;;;;-1.00;76.30;;;;;;5034020;28;19955;-76
2022/01/29 00:22:02;;;;;;;;;;;-1.00;75.80;;;;;;5042926;28;19929;-76
2022/01/29 00:24:29;;;;;;;;;;;-1.00;75.80;;;;;;5015835;28;19929;-77
2022/01/29 00:26:56;;;;;;;;;;;-1.00;75.20;;;;;;5024204;28;19926;-80
2022/01/29 00:29:23;;;;;;;;;;;-0.90;75.40;;;;;;5043332;28;20397;-76
2022/01/29 00:31:50;;;;;;;;;;;-0.90;75.20;;;;;;5036467;28;19971;-79
2022/01/29 00:34:17;;;;;;;;;;;-0.90;75.00;;;;;;5045448;28;20070;-77
2022/01/29 00:36:43;;;;;;;;;;;-1.00;74.70;;;;;;5027462;28;19983;-76
2022/01/29 00:39:10;;;;;;;;;;;-1.00;75.00;;;;;;5043653;28;19970;-79
2022/01/29 00:41:37;;;;;;;;;;;-1.00;75.10;;;;;;5034087;28;20455;-77
2022/01/29 00:44:04;;;;;;;;;;;-1.00;75.30;;;;;;5041492;28;19940;-76
2022/01/29 00:46:31;;;;;;;;;;;-1.10;74.80;;;;;;5053751;28;20484;-77
2022/01/29 00:48:58;;;;;;;;;;;-1.20;74.40;;;;;;5048005;28;19955;-79
2022/01/29 00:51:24;;;;;;;;;;;-1.20;74.40;;;;;;5038043;28;20381;-77
2022/01/29 00:53:51;;;;;;;;;;;-1.20;74.80;;;;;;5032772;28;20336;-76
2022/01/29 00:56:18;;;;;;;;;;;-1.30;76.20;;;;;;5051062;28;19982;-79
2022/01/29 00:58:45;;;;;;;;;;;-1.30;76.00;;;;;;5044547;28;19932;-79
2022/01/29 01:01:12;;;;;;;;;;;-1.30;76.30;;;;;;5057586;28;19932;-77
2022/01/29 01:03:39;;;;;;;;;;;-1.30;76.30;;;;;;5040389;28;19971;-77
2022/01/29 01:06:05;;;;;;;;;;;-1.20;76.30;;;;;;5041650;28;19924;-76
2022/01/29 01:08:32;;;;;;;;;;;-1.30;76.20;;;;;;5039856;28;19941;-77
2022/01/29 01:10:59;;;;;;;;;;;-1.30;75.60;;;;;;5031823;28;19936;-76
2022/01/29 01:13:26;;;;;;;;;;;-1.30;75.80;;;;;;5037902;28;19971;-79
2022/01/29 01:15:53;;;;;;;;;;;-1.40;75.90;;;;;;5033023;28;19991;-80
2022/01/29 01:18:21;;;;;;;;;;;-1.40;76.10;;;;;;5050672;28;19968;-75
2022/01/29 01:20:50;;;;;;;;;;;-1.50;76.30;;;;;;5054149;28;19928;-76
2022/01/29 01:23:17;;;;;;;;;;;-1.50;77.00;;;;;;5043378;28;19928;-79
2022/01/29 01:25:44;;;;;;;;;;;-1.50;77.50;;;;;;5026080;28;19929;-79
2022/01/29 01:28:10;;;;;;;;;;;-1.40;78.00;;;;;;5057710;28;20447;-77
2022/01/29 01:30:37;;;;;;;;;;;-1.30;77.60;;;;;;5034860;28;19929;-79
2022/01/29 01:33:06;;;;;;;;;;;-1.30;77.00;;;;;;5049286;28;20334;-76
2022/01/29 01:35:46;;;;;;;;;;;-1.30;76.50;;;;;;5046311;28;19925;-77
2022/01/29 01:38:29;;;;;;;;;;;-1.40;76.20;;;;;;5037431;28;19932;-77
2022/01/29 01:41:01;;;;;;;;;;;-1.50;75.80;;;;;;5048206;28;19978;-76
2022/01/29 01:43:28;;;;;;;;;;;-1.50;75.60;;;;;;5051918;28;19987;-77
2022/01/29 01:45:55;;;;;;;;;;;-1.60;76.00;;;;;;5040905;28;20024;-76
2022/01/29 01:48:22;;;;;;;;;;;-1.70;76.30;;;;;;5038831;28;19947;-77
2022/01/29 01:50:50;;;;;;;;;;;-1.70;76.80;;;;;;5040360;28;19929;-77
2022/01/29 01:53:17;;;;;;;;;;;-1.80;76.90;;;;;;5045846;28;19979;-79
2022/01/29 01:55:43;;;;;;;;;;;-1.90;77.70;;;;;;5019460;28;19933;-77
2022/01/29 01:58:10;;;;;;;;;;;-1.80;77.40;;;;;;5016883;28;19926;-77
2022/01/29 02:00:37;;;;;;;;;;;-1.80;77.40;;;;;;5052995;28;19990;-80
2022/01/29 02:03:04;;;;;;;;;;;-1.90;77.80;;;;;;5036919;28;20355;-76
2022/01/29 02:05:31;;;;;;;;;;;-1.90;77.40;;;;;;5022503;28;19938;-77
2022/01/29 02:07:58;;;;;;;;;;;-1.90;77.20;;;;;;5042127;28;19970;-77
2022/01/29 02:10:27;;;;;;;;;;;-1.90;77.30;;;;;;5066166;28;19985;-77
2022/01/29 02:12:57;;;;;;;;;;;-1.90;77.60;;;;;;5037196;28;19935;-80
2022/01/29 02:15:24;;;;;;;;;;;-1.90;77.00;;;;;;5035949;28;20364;-77
2022/01/29 02:17:51;;;;;;;;;;;-1.90;77.30;;;;;;5032063;28;19925;-76
2022/01/29 02:20:20;;;;;;;;;;;-1.90;77.50;;;;;;5027636;28;20412;-79
2022/01/29 02:22:46;;;;;;;;;;;-1.90;77.20;;;;;;5029888;28;19925;-77
2022/01/29 02:25:40;;;;;;;;;;;-1.90;77.10;;;;;;5023506;28;19926;-77
2022/01/29 02:28:08;;;;;;;;;;;-2.00;77.50;;;;;;5013232;28;19925;-78
2022/01/29 02:30:36;;;;;;;;;;;-2.00;79.00;;;;;;5018765;28;20052;-77
2022/01/29 02:33:05;;;;;;;;;;;-1.80;79.50;;;;;;5038243;28;19985;-77
2022/01/29 02:35:32;;;;;;;;;;;-1.80;78.90;;;;;;5034998;28;20293;-77
2022/01/29 02:38:00;;;;;;;;;;;-1.80;78.30;;;;;;5030053;28;19929;-77
2022/01/29 02:40:28;;;;;;;;;;;-1.80;77.80;;;;;;5025011;28;19983;-77
2022/01/29 02:42:56;;;;;;;;;;;-1.70;78.00;;;;;;5020842;28;20361;-77
2022/01/29 02:45:26;;;;;;;;;;;-1.70;77.70;;;;;;5048781;28;19926;-77
2022/01/29 02:47:53;;;;;;;;;;;-1.70;77.40;;;;;;5026800;28;19947;-77
2022/01/29 02:50:19;;;;;;;;;;;-1.90;78.50;;;;;;5020231;28;19992;-80
2022/01/29 02:52:46;;;;;;;;;;;-1.90;78.10;;;;;;5014925;28;19987;-79
2022/01/29 02:55:13;;;;;;;;;;;-1.90;78.80;;;;;;5055384;28;19929;-77
2022/01/29 02:57:40;;;;;;;;;;;-1.90;78.90;;;;;;5046177;28;19929;-77
2022/01/29 03:00:10;;;;;;;;;;;-2.00;78.70;;;;;;5016953;28;20439;-77
2022/01/29 03:02:37;;;;;;;;;;;-2.00;78.20;;;;;;5030371;28;19933;-79
2022/01/29 03:05:04;;;;;;;;;;;-2.00;78.20;;;;;;5012504;28;19933;-77
2022/01/29 03:07:31;;;;;;;;;;;-2.00;78.10;;;;;;5001099;28;20409;-77
2022/01/29 03:09:58;;;;;;;;;;;-2.00;78.10;;;;;;4997605;28;19976;-79
2022/01/29 03:12:25;;;;;;;;;;;-2.10;77.80;;;;;;5001571;28;19933;-77
2022/01/29 03:14:55;;;;;;;;;;;-2.00;77.70;;;;;;4996111;28;19925;-78
2022/01/29 03:17:22;;;;;;;;;;;-2.00;77.50;;;;;;5010641;28;19952;-80
2022/01/29 03:19:52;;;;;;;;;;;-2.10;77.10;;;;;;4993992;28;19933;-77
2022/01/29 03:22:19;;;;;;;;;;;-2.10;76.80;;;;;;5012621;28;19930;-77
2022/01/29 03:24:46;;;;;;;;;;;-2.00;77.00;;;;;;5018061;28;19925;-77
2022/01/29 03:27:12;;;;;;;;;;;-2.00;76.80;;;;;;5016761;28;19929;-77
2022/01/29 03:29:39;;;;;;;;;;;-2.00;76.70;;;;;;5012606;28;19925;-77
2022/01/29 03:32:06;;;;;;;;;;;-2.20;77.00;;;;;;5008288;28;19977;-77
2022/01/29 03:34:33;;;;;;;;;;;-2.30;77.40;;;;;;5020024;28;19971;-79
2022/01/29 03:37:01;;;;;;;;;;;-2.50;77.70;;;;;;5020981;28;19914;-77
2022/01/29 03:39:28;;;;;;;;;;;-2.50;77.80;;;;;;5014663;28;19930;-80
2022/01/29 03:42:01;;;;;;;;;;;-2.60;77.40;;;;;;5004313;28;19933;-77
2022/01/29 03:44:28;;;;;;;;;;;-2.60;77.90;;;;;;5012184;28;20455;-77
2022/01/29 03:46:54;;;;;;;;;;;-2.60;78.10;;;;;;5012253;28;20308;-77
2022/01/29 03:49:21;;;;;;;;;;;-2.60;78.40;;;;;;4999843;28;19965;-80
2022/01/29 03:51:48;;;;;;;;;;;-2.70;78.90;;;;;;4998254;28;19933;-77
2022/01/29 03:54:15;;;;;;;;;;;-2.60;78.50;;;;;;5028541;28;20033;-80
2022/01/29 03:56:42;;;;;;;;;;;-2.70;79.40;;;;;;5012687;28;20275;-80
2022/01/29 03:59:08;;;;;;;;;;;-2.60;78.60;;;;;;5005657;28;19930;-79
2022/01/29 04:01:35;;;;;;;;;;;-2.70;79.20;;;;;;5006115;28;19937;-80
2022/01/29 04:04:02;;;;;;;;;;;-2.70;78.50;;;;;;5005643;28;19984;-77
2022/01/29 04:06:30;;;;;;;;;;;-2.70;78.90;;;;;;5021199;28;19926;-77
2022/01/29 04:08:57;;;;;;;;;;;-2.70;78.90;;;;;;5007361;28;19926;-77
2022/01/29 04:11:25;;;;;;;;;;;-2.70;79.80;;;;;;5010806;28;19933;-77
2022/01/29 04:13:52;;;;;;;;;;;-2.60;80.90;;;;;;5023153;28;19925;-77
2022/01/29 04:16:19;;;;;;;;;;;-2.60;81.10;;;;;;5030093;28;20447;-77
2022/01/29 04:18:46;;;;;;;;;;;-2.60;80.30;;;;;;5021783;28;20052;-77
2022/01/29 04:21:13;;;;;;;;;;;-2.60;79.70;;;;;;5026611;28;20002;-77
2022/01/29 04:23:40;;;;;;;;;;;-2.60;79.80;;;;;;4986052;28;19930;-79
2022/01/29 04:26:06;;;;;;;;;;;-2.60;80.30;;;;;;5009214;28;20405;-77
2022/01/29 04:28:39;;;;;;;;;;;-2.60;80.70;;;;;;5025699;28;20444;-77
2022/01/29 04:31:12;;;;;;;;;;;-2.60;80.00;;;;;;5008099;28;19925;-77
2022/01/29 04:33:39;;;;;;;;;;;-2.60;79.50;;;;;;5009033;28;19930;-77
2022/01/29 04:36:06;;;;;;;;;;;-2.70;79.10;;;;;;5007013;28;19929;-77
2022/01/29 04:38:33;;;;;;;;;;;-2.70;78.90;;;;;;4992137;28;19961;-77
2022/01/29 04:41:03;;;;;;;;;;;-2.70;78.60;;;;;;5009557;28;20382;-80
2022/01/29 04:43:31;;;;;;;;;;;-2.70;79.60;;;;;;4992774;28;19953;-80
2022/01/29 04:45:59;;;;;;;;;;;-2.60;80.00;;;;;;5021694;28;20386;-77
2022/01/29 04:48:26;;;;;;;;;;;-2.70;79.60;;;;;;5010982;28;19960;-76
2022/01/29 04:50:53;;;;;;;;;;;-2.80;79.10;;;;;;5010275;28;19925;-79
2022/01/29 04:53:19;;;;;;;;;;;-2.80;79.40;;;;;;5007340;28;20043;-77
2022/01/29 04:55:46;;;;;;;;;;;-2.80;79.40;;;;;;4980888;28;19926;-76
2022/01/29 04:58:13;;;;;;;;;;;-2.90;79.50;;;;;;5001085;28;19979;-77
2022/01/29 05:00:40;;;;;;;;;;;-2.90;79.10;;;;;;5005411;28;19925;-79
2022/01/29 05:03:08;;;;;;;;;;;-3.00;79.10;;;;;;4992672;28;20382;-80
2022/01/29 05:05:36;;;;;;;;;;;-3.00;79.20;;;;;;4991734;28;19933;-77
2022/01/29 05:08:03;;;;;;;;;;;-3.00;78.50;;;;;;5009872;28;19926;-76
2022/01/29 05:10:30;;;;;;;;;;;-3.00;78.50;;;;;;5011797;28;19929;-77
2022/01/29 05:13:07;;;;;;;;;;;-3.00;78.40;;;;;;5009329;28;20440;-76
2022/01/29 05:26:51;;;;;;;;;;;-3.20;81.20;;;;;;5011629;28;20003;-76
2022/01/29 05:29:18;;;;;;;;;;;-3.20;80.40;;;;;;5019043;28;19925;-80
2022/01/29 05:31:45;;;;;;;;;;;-3.20;80.00;;;;;;5017494;28;19937;-77
2022/01/29 05:34:12;;;;;;;;;;;-3.20;80.40;;;;;;5001215;28;20389;-79
2022/01/29 05:36:39;;;;;;;;;;;-3.30;79.80;;;;;;5013798;28;20390;-77
2022/01/29 05:39:06;;;;;;;;;;;-3.20;80.00;;;;;;5007978;28;20401;-77
2022/01/29 05:41:33;;;;;;;;;;;-3.20;79.50;;;;;;5013992;28;20456;-77
2022/01/29 05:43:59;;;;;;;;;;;-3.20;79.60;;;;;;5026632;28;20004;-76
2022/01/29 05:46:26;;;;;;;;;;;-3.20;80.10;;;;;;4994665;28;19938;-77
2022/01/29 05:48:53;;;;;;;;;;;-3.10;81.10;;;;;;4995305;28;19926;-77
2022/01/29 05:51:20;;;;;;;;;;;-3.10;80.70;;;;;;5026872;28;20451;-77
2022/01/29 05:53:47;;;;;;;;;;;-3.10;80.10;;;;;;5040784;28;19925;-77
2022/01/29 05:56:14;;;;;;;;;;;-3.10;80.60;;;;;;5034961;28;19956;-76
2022/01/29 05:58:41;;;;;;;;;;;-3.10;80.20;;;;;;5012514;28;19929;-77
2022/01/29 06:01:08;;;;;;;;;;;-3.10;80.30;;;;;;5004365;28;19933;-79
2022/01/29 06:03:35;;;;;;;;;;;-3.20;79.90;;;;;;5003194;28;19929;-77
2022/01/29 06:06:02;;;;;;;;;;;-3.20;79.60;;;;;;5042739;28;20555;-79
2022/01/29 06:08:29;;;;;;;;;;;-3.30;79.10;;;;;;5013805;28;20374;-77
2022/01/29 06:10:55;;;;;;;;;;;-3.30;78.90;;;;;;5014134;28;20455;-77
2022/01/29 06:13:22;;;;;;;;;;;-3.30;79.10;;;;;;5010280;28;19977;-80
2022/01/29 06:15:52;;;;;;;;;;;-3.40;79.40;;;;;;5003533;28;19925;-80
2022/01/29 06:18:20;;;;;;;;;;;-3.40;79.50;;;;;;5000437;28;19956;-77
2022/01/29 06:20:51;;;;;;;;;;;-3.40;80.40;;;;;;5030853;28;20400;-77
2022/01/29 06:23:21;;;;;;;;;;;-3.40;79.60;;;;;;5037840;28;19951;-77
2022/01/29 06:25:48;;;;;;;;;;;-3.30;79.80;;;;;;5029165;28;19929;-77
2022/01/29 06:28:15;;;;;;;;;;;-3.30;80.60;;;;;;5024111;28;20400;-77
2022/01/29 06:30:41;;;;;;;;;;;-3.30;81.50;;;;;;5028131;28;19929;-77
2022/01/29 06:33:09;;;;;;;;;;;-3.30;82.00;;;;;;5025951;28;19936;-77
2022/01/29 06:35:37;;;;;;;;;;;-3.30;81.00;;;;;;5003989;28;20499;-79
2022/01/29 06:38:04;;;;;;;;;;;-3.20;81.10;;;;;;5015076;28;19968;-77
2022/01/29 06:40:31;;;;;;;;;;;-3.30;80.60;;;;;;5019202;28;19925;-76
2022/01/29 06:42:58;;;;;;;;;;;-3.30;80.40;;;;;;5016630;28;19925;-78
2022/01/29 06:45:25;;;;;;;;;;;-3.30;80.60;;;;;;5023871;28;19929;-77
2022/01/29 06:47:52;;;;;;;;;;;-3.30;82.10;;;;;;5026490;28;19929;-77
2022/01/29 06:50:18;;;;;;;;;;;-3.20;83.00;;;;;;5028289;28;19972;-76
2022/01/29 06:52:45;;;;;;;;;;;-3.20;83.40;;;;;;5023050;28;20389;-77
2022/01/29 06:55:12;;;;;;;;;;;-3.20;82.60;;;;;;5002018;28;19953;-77
2022/01/29 06:57:39;;;;;;;;;;;-3.20;82.10;;;;;;5007070;28;19926;-77
2022/01/29 07:00:26;;;;;;;;;;;-3.20;82.80;;;;;;5025282;28;19929;-76
2022/01/29 07:02:52;;;;;;;;;;;-3.40;83.40;;;;;;5009721;28;19933;-77
2022/01/29 07:05:19;;;;;;;;;;;-3.60;84.60;;;;;;5012062;28;19960;-77
2022/01/29 07:07:46;;;;;;;;;;;-3.60;85.20;;;;;;5028034;28;20443;-77
2022/01/29 07:10:13;;;;;;;;;;;-3.60;85.60;;;;;;5008189;28;20343;-77
2022/01/29 07:12:40;;;;;;;;;;;-3.60;85.80;;;;;;5045888;28;19940;-77
2022/01/29 07:15:08;;;;;;;;;;;-3.50;86.20;;;;;;5029622;28;19932;-77
2022/01/29 07:17:35;;;;;;;;;;;-3.50;85.10;;;;;;5020443;28;20460;-77
2022/01/29 07:20:03;;;;;;;;;;;-3.50;84.70;;;;;;5029667;28;19959;-76
2022/01/29 07:22:29;;;;;;;;;;;-3.40;86.00;;;;;;5024865;28;20344;-76
2022/01/29 07:24:56;;;;;;;;;;;-3.40;85.30;;;;;;5027548;28;19999;-77
2022/01/29 07:27:23;;;;;;;;;;;-3.30;85.10;;;;;;5016677;28;19976;-76
2022/01/29 07:29:50;;;;;;;;;;;-3.20;84.80;;;;;;5015982;28;19925;-76
2022/01/29 07:32:17;;;;;;;;;;;-3.20;84.70;;;;;;5016549;28;19925;-77
2022/01/29 07:34:44;;;;;;;;;;;-3.10;84.60;;;;;;5032931;28;20443;-79
2022/01/29 07:37:11;;;;;;;;;;;-3.10;84.20;;;;;;5029996;28;20385;-76
2022/01/29 07:39:38;;;;;;;;;;;-3.10;83.70;;;;;;5010578;28;20382;-76
2022/01/29 07:42:05;;;;;;;;;;;-3.00;83.40;;;;;;5013150;28;19979;-76
2022/01/29 07:44:32;;;;;;;;;;;-3.00;83.20;;;;;;5013688;28;19925;-76
2022/01/29 07:46:59;;;;;;;;;;;-3.00;82.80;;;;;;5014618;28;19925;-78
2022/01/29 07:49:26;;;;;;;;;;;-3.00;83.10;;;;;;5039624;28;19929;-77
2022/01/29 07:51:53;;;;;;;;;;;-2.80;84.10;;;;;;5030141;28;19929;-76
2022/01/29 07:54:19;;;;;;;;;;;-2.50;84.40;;;;;;5023990;28;20475;-79
2022/01/29 07:56:46;;;;;;;;;;;-2.20;83.10;;;;;;5020183;28;19975;-77
2022/01/29 07:59:13;;;;;;;;;;;-1.90;82.40;;;;;;5015423;28;19975;-77
2022/01/29 08:01:40;;;;;;;;;;;-1.60;83.00;;;;;;5022478;28;20416;-76
2022/01/29 08:04:07;;;;;;;;;;;-1.30;82.50;;;;;;5017767;28;19932;-76
2022/01/29 08:06:34;;;;;;;;;;;-1.10;81.80;;;;;;5012812;28;19929;-79
2022/01/29 08:09:01;;;;;;;;;;;-0.90;81.20;;;;;;5012267;28;20393;-79
2022/01/29 08:11:27;;;;;;;;;;;-0.60;80.60;;;;;;5017066;28;19933;-77
2022/01/29 08:13:54;;;;;;;;;;;-0.40;80.00;;;;;;5015044;28;19925;-77
2022/01/29 08:16:21;;;;;;;;;;;-0.10;79.20;;;;;;5015847;28;20341;-76
2022/01/29 08:18:48;;;;;;;;;;;0.10;78.40;;;;;;5028312;28;19929;-77
2022/01/29 08:21:15;;;;;;;;;;;0.40;77.60;;;;;;5028505;28;19936;-77
2022/01/29 08:23:43;;;;;;;;;;;0.50;76.90;;;;;;5019016;28;19925;-80
2022/01/29 08:26:11;;;;;;;;;;;0.80;75.40;;;;;;5018471;28;20397;-76
2022/01/29 08:28:38;;;;;;;;;;;1.00;75.00;;;;;;5010484;28;19925;-76
2022/01/29 08:31:05;;;;;;;;;;;1.20;73.10;;;;;;5029067;28;19929;-76
2022/01/29 08:33:32;;;;;;;;;;;1.40;72.40;;;;;;5030083;28;20004;-78
2022/01/29 08:35:59;;;;;;;;;;;1.60;71.80;;;;;;5022895;28;19976;-80
2022/01/29 08:38:26;;;;;;;;;;;1.80;71.00;;;;;;5023411;28;20024;-77
2022/01/29 08:40:54;;;;;;;;;;;2.00;69.60;;;;;;5030187;28;19925;-80
2022/01/29 08:43:22;;;;;;;;;;;2.20;69.10;;;;;;5030188;28;19925;-79
2022/01/29 08:45:50;;;;;;;;;;;2.50;68.10;;;;;;5028763;28;20381;-77
2022/01/29 08:48:17;;;;;;;;;;;2.70;67.00;;;;;;5010736;28;19929;-80
2022/01/29 08:50:44;;;;;;;;;;;2.90;66.70;;;;;;5031701;28;20464;-78
2022/01/29 08:53:14;;;;;;;;;;;3.00;65.50;;;;;;5040657;28;19935;-78
2022/01/29 08:55:41;;;;;;;;;;;3.20;65.60;;;;;;5035532;28;20389;-80
2022/01/29 08:58:08;;;;;;;;;;;3.40;64.40;;;;;;5021459;28;20340;-80
2022/01/29 09:00:36;;;;;;;;;;;3.60;64.20;;;;;;5049588;28;19929;-80
2022/01/29 09:03:04;;;;;;;;;;;3.70;63.70;;;;;;5043100;28;19930;-77
2022/01/29 09:05:32;;;;;;;;;;;3.90;64.00;;;;;;5023336;28;20393;-77
2022/01/29 09:07:59;;;;;;;;;;;4.00;62.90;;;;;;5033441;28;19976;-77
2022/01/29 09:10:27;;;;;;;;;;;4.20;62.20;;;;;;5033682;28;19933;-79
2022/01/29 09:12:54;;;;;;;;;;;4.30;62.30;;;;;;5035044;28;19979;-78
2022/01/29 09:15:20;;;;;;;;;;;4.40;61.40;;;;;;5025327;28;19925;-77
2022/01/29 09:17:47;;;;;;;;;;;4.50;60.30;;;;;;5028591;28;19937;-78
2022/01/29 09:20:14;;;;;;;;;;;4.60;59.90;;;;;;5034132;28;19931;-78
2022/01/29 09:22:41;;;;;;;;;;;4.70;59.10;;;;;;5046700;28;20019;-78
2022/01/29 09:25:10;;;;;;;;;;;4.90;59.70;;;;;;5035916;28;20369;-77
2022/01/29 09:27:37;;;;;;;;;;;5.00;59.30;;;;;;5054351;28;19924;-77
2022/01/29 09:30:05;;;;;;;;;;;5.10;59.40;;;;;;5031296;28;19929;-79
2022/01/29 09:32:32;;;;;;;;;;;5.30;59.40;;;;;;5037169;28;19925;-79
2022/01/29 09:34:59;;;;;;;;;;;5.40;59.70;;;;;;5025425;28;20385;-79
2022/01/29 09:37:26;;;;;;;;;;;5.60;58.90;;;;;;5030286;28;19933;-79
2022/01/29 09:39:56;;;;;;;;;;;5.80;59.30;;;;;;5021943;28;19925;-81
2022/01/29 09:42:22;;;;;;;;;;;5.90;58.90;;;;;;5017016;28;19926;-78
2022/01/29 09:44:52;;;;;;;;;;;5.80;58.30;;;;;;5005921;28;20306;-78
2022/01/29 09:47:23;;;;;;;;;;;6.00;58.60;;;;;;5032048;28;20455;-79
2022/01/29 09:49:50;;;;;;;;;;;6.00;57.40;;;;;;5016480;28;19926;-77
2022/01/29 09:52:17;;;;;;;;;;;6.20;58.20;;;;;;5024231;28;20397;-80
2022/01/29 09:54:46;;;;;;;;;;;6.30;57.10;;;;;;5002516;28;19952;-79
2022/01/29 09:57:12;;;;;;;;;;;6.40;57.30;;;;;;5034585;28;19932;-78
2022/01/29 09:59:40;;;;;;;;;;;6.60;57.40;;;;;;5033122;28;20324;-77
2022/01/29 10:02:14;;;;;;;;;;;6.70;56.10;;;;;;5004230;28;19933;-80
2022/01/29 10:04:48;;;;;;;;;;;6.90;55.10;;;;;;4993149;28;19948;-78
2022/01/29 10:07:16;;;;;;;;;;;7.00;53.60;;;;;;5016826;28;20381;-80
2022/01/29 10:09:43;;;;;;;;;;;7.10;52.50;;;;;;5002471;28;19925;-80
2022/01/29 10:12:19;;;;;;;;;;;7.20;52.30;;;;;;5028471;28;19936;-79
2022/01/29 10:14:47;;;;;;;;;;;7.30;50.40;;;;;;5015816;28;19925;-77
2022/01/29 10:17:34;;;;;;;;;;;7.50;49.80;;;;;;5016580;28;19932;-78
2022/01/29 10:20:07;;;;;;;;;;;7.50;47.50;;;;;;5016553;28;20420;-80
2022/01/29 10:22:35;;;;;;;;;;;7.60;49.50;;;;;;5044538;28;19932;-80
2022/01/29 10:25:06;;;;;;;;;;;7.80;48.10;;;;;;5033237;28;20447;-80
2022/01/29 10:27:33;;;;;;;;;;;7.90;48.70;;;;;;5029800;28;19929;-80
2022/01/29 10:30:10;;;;;;;;;;;7.90;47.70;;;;;;5020930;28;19925;-79
2022/01/29 10:32:37;;;;;;;;;;;8.00;46.60;;;;;;5021931;28;20423;-81
2022/01/29 10:35:04;;;;;;;;;;;8.00;46.40;;;;;;5029690;28;19982;-79
2022/01/29 10:37:31;;;;;;;;;;;8.10;47.50;;;;;;5012130;28;19925;-79
2022/01/29 10:40:00;;;;;;;;;;;8.30;47.60;;;;;;5006917;28;19932;-79
2022/01/29 10:42:32;;;;;;;;;;;8.50;48.20;;;;;;5027465;28;20402;-79
2022/01/29 10:45:03;;;;;;;;;;;8.60;47.50;;;;;;5022681;28;19932;-79
2022/01/29 10:47:31;;;;;;;;;;;8.80;47.30;;;;;;5016229;28;19929;-79
2022/01/29 10:50:01;;;;;;;;;;;9.00;46.30;;;;;;5027136;28;19933;-78
2022/01/29 10:52:35;;;;;;;;;;;9.10;45.80;;;;;;5023785;28;19932;-80
2022/01/29 10:55:03;;;;;;;;;;;9.30;45.90;;;;;;5010398;28;20301;-78
2022/01/29 10:57:31;;;;;;;;;;;9.40;41.70;;;;;;5004969;28;19929;-80
2022/01/29 10:59:58;;;;;;;;;;;9.50;42.40;;;;;;5016895;28;19932;-80
2022/01/29 11:02:29;;;;;;;;;;;9.50;39.90;;;;;;5002327;28;19936;-78
2022/01/29 11:04:56;;;;;;;;;;;9.60;41.30;;;;;;5020357;28;20332;-78
2022/01/29 11:07:27;;;;;;;;;;;9.70;40.40;;;;;;5015869;28;19983;-78
2022/01/29 11:09:55;;;;;;;;;;;9.80;38.80;;;;;;5014544;28;19961;-77
2022/01/29 11:12:24;;;;;;;;;;;9.90;39.10;;;;;;5008370;28;19926;-77
2022/01/29 11:14:58;;;;;;;;;;;10.10;38.50;;;;;;5014722;28;19926;-77
2022/01/29 11:17:26;;;;;;;;;;;10.10;37.70;;;;;;5012261;28;20298;-78
2022/01/29 11:19:53;;;;;;;;;;;10.30;39.10;;;;;;5005973;28;19926;-80
2022/01/29 11:22:22;;;;;;;;;;;10.40;39.20;;;;;;5009630;28;19979;-78
2022/01/29 11:24:49;;;;;;;;;;;10.50;39.80;;;;;;5018039;28;19926;-79
2022/01/29 11:27:22;;;;;;;;;;;10.60;39.50;;;;;;4995661;28;19929;-78
2022/01/29 11:29:55;;;;;;;;;;;10.70;39.00;;;;;;5013783;28;20326;-77
2022/01/29 11:32:26;;;;;;;;;;;10.80;38.80;;;;;;5017101;28;19932;-79
2022/01/29 11:35:05;;;;;;;;;;;10.90;38.40;;;;;;5026008;28;20341;-76
2022/01/29 11:37:57;;;;;;;;;;;11.00;38.50;;;;;;5011731;28;19926;-79
2022/01/29 11:40:27;;;;;;;;;;;11.10;36.60;;;;;;5021973;28;19933;-78
2022/01/29 11:42:54;;;;;;;;;;;11.20;37.50;;;;;;5048641;28;20451;-78
2022/01/29 11:45:31;;;;;;;;;;;11.30;37.10;;;;;;5038954;28;19925;-78
2022/01/29 11:47:58;;;;;;;;;;;11.30;36.70;;;;;;5048619;28;19929;-77
2022/01/29 11:50:28;;;;;;;;;;;11.20;37.20;;;;;;5007995;28;19991;-78
2022/01/29 11:52:56;;;;;;;;;;;11.40;37.90;;;;;;5040017;28;19928;-78
2022/01/29 11:55:39;;;;;;;;;;;11.40;37.60;;;;;;5025871;28;20373;-77
2022/01/29 11:58:15;;;;;;;;;;;11.50;37.40;;;;;;5049433;28;19929;-78
2022/01/29 12:00:45;;;;;;;;;;;11.50;37.00;;;;;;5042282;28;20060;-77
2022/01/29 12:03:30;;;;;;;;;;;11.50;36.40;;;;;;5040235;28;19925;-79
2022/01/29 12:06:07;;;;;;;;;;;11.50;37.20;;;;;;5013826;28;20079;-77
2022/01/29 12:08:39;;;;;;;;;;;11.60;36.50;;;;;;5023171;28;20007;-79
2022/01/29 12:11:10;;;;;;;;;;;11.70;36.60;;;;;;5017734;28;20382;-78
2022/01/29 12:13:37;;;;;;;;;;;11.70;36.40;;;;;;5037751;28;19925;-79
2022/01/29 12:16:09;;;;;;;;;;;11.90;37.50;;;;;;5051549;28;19924;-76
2022/01/29 12:18:36;;;;;;;;;;;12.10;37.70;;;;;;5028725;28;19925;-78
2022/01/29 12:21:04;;;;;;;;;;;12.20;37.00;;;;;;5025305;28;19986;-79
2022/01/29 12:23:47;;;;;;;;;;;12.20;36.80;;;;;;5021499;28;19933;-78
2022/01/29 12:26:18;;;;;;;;;;;12.40;37.40;;;;;;5008170;28;19924;-79
2022/01/29 12:28:47;;;;;;;;;;;12.50;37.80;;;;;;5019201;28;20340;-80
2022/01/29 12:31:15;;;;;;;;;;;12.60;37.40;;;;;;5033289;28;19939;-80
2022/01/29 12:33:42;;;;;;;;;;;12.70;37.40;;;;;;5033590;28;20278;-78
2022/01/29 12:36:09;;;;;;;;;;;12.70;36.30;;;;;;5032966;28;19951;-78
2022/01/29 12:38:40;;;;;;;;;;;12.70;36.90;;;;;;5046487;28;19925;-79
2022/01/29 12:41:12;;;;;;;;;;;12.60;36.50;;;;;;5022000;28;19933;-78
2022/01/29 12:44:00;;;;;;;;;;;12.80;36.90;;;;;;5032924;28;20385;-79
2022/01/29 12:46:29;;;;;;;;;;;12.90;36.80;;;;;;5036124;28;19928;-77
2022/01/29 12:48:57;;;;;;;;;;;12.90;36.40;;;;;;5032284;28;19932;-77
2022/01/29 12:51:24;;;;;;;;;;;12.90;37.70;;;;;;5022064;28;19925;-79
2022/01/29 12:53:55;;;;;;;;;;;13.00;37.00;;;;;;5025066;28;20381;-76
2022/01/29 12:56:28;;;;;;;;;;;13.00;36.60;;;;;;5026896;28;19925;-76
2022/01/29 12:58:55;;;;;;;;;;;13.10;36.90;;;;;;5030645;28;19929;-79
2022/01/29 13:01:24;;;;;;;;;;;13.20;35.30;;;;;;5016932;28;19925;-80
2022/01/29 13:03:59;;;;;;;;;;;13.10;35.10;;;;;;5035036;28;19925;-80
2022/01/29 13:06:25;;;;;;;;;;;13.20;34.90;;;;;;5036398;28;19929;-77
2022/01/29 13:08:52;;;;;;;;;;;13.30;34.30;;;;;;5040054;28;19932;-79
2022/01/29 13:11:28;;;;;;;;;;;13.30;33.50;;;;;;5031563;28;19933;-76
2022/01/29 13:13:56;;;;;;;;;;;13.40;33.00;;;;;;5033415;28;19933;-80
2022/01/29 13:16:29;;;;;;;;;;;13.40;33.10;;;;;;5034093;28;20273;-80
2022/01/29 13:18:56;;;;;;;;;;;13.30;33.50;;;;;;5034999;28;20373;-77
2022/01/29 13:21:26;;;;;;;;;;;13.30;34.30;;;;;;5045381;28;19947;-79
2022/01/29 13:23:56;;;;;;;;;;;13.30;33.70;;;;;;5056080;28;19924;-77
2022/01/29 13:26:29;;;;;;;;;;;13.20;34.30;;;;;;5024318;28;19929;-80
2022/01/29 13:28:59;;;;;;;;;;;13.30;34.40;;;;;;5014411;28;19925;-78
2022/01/29 13:31:27;;;;;;;;;;;13.40;33.70;;;;;;5019795;28;19925;-79
2022/01/29 13:33:54;;;;;;;;;;;13.40;32.90;;;;;;5008878;28;19929;-78
2022/01/29 13:36:31;;;;;;;;;;;13.40;32.90;;;;;;5016759;28;19925;-77
2022/01/29 13:39:07;;;;;;;;;;;13.40;32.30;;;;;;5030422;28;20424;-76
2022/01/29 13:41:34;;;;;;;;;;;13.20;31.80;;;;;;5012852;28;19929;-76
2022/01/29 13:44:08;;;;;;;;;;;13.10;32.10;;;;;;5013489;28;19929;-79
2022/01/29 13:46:35;;;;;;;;;;;13.10;33.00;;;;;;5026751;28;19944;-78
2022/01/29 13:49:03;;;;;;;;;;;13.20;32.80;;;;;;5005899;28;19937;-80
2022/01/29 13:51:32;;;;;;;;;;;13.30;32.80;;;;;;5012976;28;19929;-79
2022/01/29 13:53:59;;;;;;;;;;;13.40;31.00;;;;;;5017185;28;19925;-80
2022/01/29 13:56:28;;;;;;;;;;;13.40;31.70;;;;;;5032853;28;19925;-76
2022/01/29 13:59:13;;;;;;;;;;;13.50;32.10;;;;;;5034152;28;20309;-79
2022/01/29 14:01:41;;;;;;;;;;;13.50;30.80;;;;;;5016444;28;20445;-78
2022/01/29 14:04:39;;;;;;;;;;;13.40;30.30;;;;;;5001236;28;19934;-80
2022/01/29 14:07:09;;;;;;;;;;;13.40;30.40;;;;;;5027752;28;19932;-80
2022/01/29 14:12:13;;;;;;;;;;;13.40;31.20;;;;;;5048525;28;19929;-80
2022/01/29 14:14:40;;;;;;;;;;;13.30;31.50;;;;;;5043506;28;19935;-77
2022/01/29 14:17:09;;;;;;;;;;;13.30;31.80;;;;;;5042218;28;19932;-76
2022/01/29 14:19:37;;;;;;;;;;;13.30;31.80;;;;;;5035732;28;20381;-80
2022/01/29 14:22:04;;;;;;;;;;;13.30;31.30;;;;;;5031977;28;19925;-78
2022/01/29 14:24:32;;;;;;;;;;;13.30;32.20;;;;;;5060598;28;19925;-78
2022/01/29 14:26:59;;;;;;;;;;;13.30;32.50;;;;;;5026094;28;19925;-78
2022/01/29 14:29:26;;;;;;;;;;;13.40;32.20;;;;;;5028536;28;20302;-81
2022/01/29 14:32:17;;;;;;;;;;;13.30;32.60;;;;;;5024399;28;20850;-79
2022/01/29 14:34:51;;;;;;;;;;;13.20;32.10;;;;;;5027915;28;19975;-77
2022/01/29 14:37:18;;;;;;;;;;;13.20;32.30;;;;;;5046746;28;20403;-79
2022/01/29 14:39:47;;;;;;;;;;;13.30;33.50;;;;;;5032525;28;19959;-79
2022/01/29 14:42:16;;;;;;;;;;;13.30;33.60;;;;;;5025432;28;21052;-77